Batterdale, United Kingdom
Current Conditions -  °F | °C
As of 10:50 AM on Tuesday 21 Oct 2014 (Local Time) from EGGW Reporting Station
Few Clouds Few Clouds  
Wind Chill: 12°   Ceiling: Unl
Heat Index: 12°   Visibility: 6mi
Dew Point:   Wind: 26mph
Humidity: 67%   Direction: 280°W
Pressure: 29.59"   Gusts: NA
Location:  51.76°N, 0.21°W
Report Text: EGGW 210950Z 28023KT 9999 FEW033 12/06 Q1002
Loading
Personal Weather Stations






























Interactive Weather Map
Tropical Storm Tracking
New forecast layout! Learn more

10-Day Weather Forecast

Advertisements
Track Severe Weather on mobile